sensor_id;sensor_type;location;lat;lon;timestamp;temperature;humidity
66128;DHT22;52925;52.436;-1.952;2024-03-08T06:31:40;8.40;99.90
66128;DHT22;52925;52.436;-1.952;2024-03-08T06:33:01;8.40;99.90
66128;DHT22;52925;52.436;-1.952;2024-03-08T06:34:21;8.50;99.90
66128;DHT22;52925;52.436;-1.952;2024-03-08T06:35:42;8.50;99.90
66128;DHT22;52925;52.436;-1.952;2024-03-08T06:37:10;8.60;99.90
66128;DHT22;52925;52.436;-1.952;2024-03-08T06:38:31;8.60;99.90
66128;DHT22;52925;52.436;-1.952;2024-03-08T06:39:51;8.60;99.90
66128;DHT22;52925;52.436;-1.952;2024-03-08T06:41:14;8.60;99.90
66128;DHT22;52925;52.436;-1.952;2024-03-08T06:42:35;8.50;99.90
66128;DHT22;52925;52.436;-1.952;2024-03-08T06:43:56;8.60;99.90
66128;DHT22;52925;52.436;-1.952;2024-03-08T06:45:17;8.50;99.90
66128;DHT22;52925;52.436;-1.952;2024-03-08T06:46:42;8.50;99.90
66128;DHT22;52925;52.436;-1.952;2024-03-08T06:48:19;8.50;99.90
66128;DHT22;52925;52.436;-1.952;2024-03-08T06:49:40;8.50;99.90
66128;DHT22;52925;52.436;-1.952;2024-03-08T06:51:00;8.50;99.90
66128;DHT22;52925;52.436;-1.952;2024-03-08T06:52:21;8.50;99.90
66128;DHT22;52925;52.436;-1.952;2024-03-08T06:53:41;8.50;99.90
66128;DHT22;52925;52.436;-1.952;2024-03-08T06:55:02;8.50;99.90
66128;DHT22;52925;52.436;-1.952;2024-03-08T06:56:24;8.50;99.90
66128;DHT22;52925;52.436;-1.952;2024-03-08T06:57:45;8.60;99.90
66128;DHT22;52925;52.436;-1.952;2024-03-08T06:59:05;8.70;99.90
66128;DHT22;52925;52.436;-1.952;2024-03-08T07:00:29;8.60;99.90
66128;DHT22;52925;52.436;-1.952;2024-03-08T07:01:51;8.50;99.90
66128;DHT22;52925;52.436;-1.952;2024-03-08T07:05:03;8.50;99.90
66128;DHT22;52925;52.436;-1.952;2024-03-08T07:06:24;8.50;99.90
66128;DHT22;52925;52.436;-1.952;2024-03-08T07:07:45;8.60;99.90
66128;DHT22;52925;52.436;-1.952;2024-03-08T07:09:08;8.50;99.90
66128;DHT22;52925;52.436;-1.952;2024-03-08T07:10:28;8.50;99.90
66128;DHT22;52925;52.436;-1.952;2024-03-08T07:11:48;8.50;99.90
66128;DHT22;52925;52.436;-1.952;2024-03-08T07:13:14;8.60;99.90
66128;DHT22;52925;52.436;-1.952;2024-03-08T07:14:37;8.60;99.90
66128;DHT22;52925;52.436;-1.952;2024-03-08T07:16:00;8.60;99.90
66128;DHT22;52925;52.436;-1.952;2024-03-08T16:56:07;9.40;99.90
66128;DHT22;52925;52.436;-1.952;2024-03-08T16:57:39;9.50;99.90
66128;DHT22;52925;52.436;-1.952;2024-03-08T16:59:05;9.50;99.90
66128;DHT22;52925;52.436;-1.952;2024-03-08T17:00:28;9.50;99.90
66128;DHT22;52925;52.436;-1.952;2024-03-08T17:01:48;9.60;99.90
66128;DHT22;52925;52.436;-1.952;2024-03-08T17:03:20;9.60;99.90
66128;DHT22;52925;52.436;-1.952;2024-03-08T17:04:41;9.60;99.90
66128;DHT22;52925;52.436;-1.952;2024-03-08T17:06:03;9.60;99.90
66128;DHT22;52925;52.436;-1.952;2024-03-08T17:07:25;9.70;99.90
66128;DHT22;52925;52.436;-1.952;2024-03-08T17:08:47;9.60;99.90
66128;DHT22;52925;52.436;-1.952;2024-03-08T17:10:08;9.60;99.90
66128;DHT22;52925;52.436;-1.952;2024-03-08T17:11:36;9.60;99.90
66128;DHT22;52925;52.436;-1.952;2024-03-08T17:12:59;9.60;99.90
66128;DHT22;52925;52.436;-1.952;2024-03-08T17:14:20;9.60;99.90
66128;DHT22;52925;52.436;-1.952;2024-03-08T17:15:41;9.60;99.90
66128;DHT22;52925;52.436;-1.952;2024-03-08T17:17:11;9.60;99.90
66128;DHT22;52925;52.436;-1.952;2024-03-08T17:18:34;9.50;99.90
66128;DHT22;52925;52.436;-1.952;2024-03-08T17:19:54;9.60;99.90
66128;DHT22;52925;52.436;-1.952;2024-03-08T17:21:29;9.60;99.90
66128;DHT22;52925;52.436;-1.952;2024-03-08T17:22:51;9.60;99.90
66128;DHT22;52925;52.436;-1.952;2024-03-08T17:24:13;9.60;99.90
66128;DHT22;52925;52.436;-1.952;2024-03-08T17:25:36;9.60;99.90
66128;DHT22;52925;52.436;-1.952;2024-03-08T17:27:04;9.60;99.90
66128;DHT22;52925;52.436;-1.952;2024-03-08T17:28:26;9.60;99.90
66128;DHT22;52925;52.436;-1.952;2024-03-08T17:29:48;9.60;99.90
66128;DHT22;52925;52.436;-1.952;2024-03-08T17:31:10;9.60;99.90
66128;DHT22;52925;52.436;-1.952;2024-03-08T17:38:58;9.60;99.90
66128;DHT22;52925;52.436;-1.952;2024-03-08T17:40:20;9.60;99.90
66128;DHT22;52925;52.436;-1.952;2024-03-08T17:41:42;9.60;99.90
66128;DHT22;52925;52.436;-1.952;2024-03-08T17:43:06;9.40;99.90
66128;DHT22;52925;52.436;-1.952;2024-03-08T17:44:27;9.40;99.90
66128;DHT22;52925;52.436;-1.952;2024-03-08T17:45:49;9.50;99.90
66128;DHT22;52925;52.436;-1.952;2024-03-08T17:47:14;9.50;99.90
66128;DHT22;52925;52.436;-1.952;2024-03-08T17:48:38;9.50;99.90
66128;DHT22;52925;52.436;-1.952;2024-03-08T17:49:58;9.50;99.90
66128;DHT22;52925;52.436;-1.952;2024-03-08T17:51:19;9.50;99.90
66128;DHT22;52925;52.436;-1.952;2024-03-08T17:52:40;9.60;99.90
66128;DHT22;52925;52.436;-1.952;2024-03-08T17:54:01;9.60;99.90
66128;DHT22;52925;52.436;-1.952;2024-03-08T17:55:22;9.50;99.90
66128;DHT22;52925;52.436;-1.952;2024-03-08T17:56:44;9.50;99.90
66128;DHT22;52925;52.436;-1.952;2024-03-08T17:58:06;9.50;99.90
66128;DHT22;52925;52.436;-1.952;2024-03-08T17:59:28;9.50;99.90
66128;DHT22;52925;52.436;-1.952;2024-03-08T18:00:49;9.50;99.90
66128;DHT22;52925;52.436;-1.952;2024-03-08T18:02:10;9.50;99.90
66128;DHT22;52925;52.436;-1.952;2024-03-08T18:03:32;9.50;99.90
66128;DHT22;52925;52.436;-1.952;2024-03-08T18:04:53;9.50;99.90
66128;DHT22;52925;52.436;-1.952;2024-03-08T18:06:13;9.50;99.90
66128;DHT22;52925;52.436;-1.952;2024-03-08T18:07:34;9.50;99.90
66128;DHT22;52925;52.436;-1.952;2024-03-08T18:08:54;9.50;99.90
66128;DHT22;52925;52.436;-1.952;2024-03-08T18:10:15;9.50;99.90
66128;DHT22;52925;52.436;-1.952;2024-03-08T18:13:29;9.50;99.90
66128;DHT22;52925;52.436;-1.952;2024-03-08T18:14:53;9.50;99.90
66128;DHT22;52925;52.436;-1.952;2024-03-08T18:16:14;9.50;99.90
66128;DHT22;52925;52.436;-1.952;2024-03-08T18:17:34;9.50;99.90
66128;DHT22;52925;52.436;-1.952;2024-03-08T18:18:55;9.50;99.90
66128;DHT22;52925;52.436;-1.952;2024-03-08T18:20:15;9.50;99.90
66128;DHT22;52925;52.436;-1.952;2024-03-08T18:21:41;9.50;99.90
66128;DHT22;52925;52.436;-1.952;2024-03-08T18:23:02;9.40;99.90
66128;DHT22;52925;52.436;-1.952;2024-03-08T18:24:23;9.40;99.90
66128;DHT22;52925;52.436;-1.952;2024-03-08T18:25:53;9.50;99.90
66128;DHT22;52925;52.436;-1.952;2024-03-08T18:27:14;9.40;99.90
66128;DHT22;52925;52.436;-1.952;2024-03-08T18:28:36;9.40;99.90
66128;DHT22;52925;52.436;-1.952;2024-03-08T18:30:00;9.50;99.90
66128;DHT22;52925;52.436;-1.952;2024-03-08T18:31:33;9.40;99.90
66128;DHT22;52925;52.436;-1.952;2024-03-08T18:32:54;9.40;99.90
66128;DHT22;52925;52.436;-1.952;2024-03-08T18:34:15;9.40;99.90
66128;DHT22;52925;52.436;-1.952;2024-03-08T18:35:36;9.40;99.90
66128;DHT22;52925;52.436;-1.952;2024-03-08T18:36:57;9.40;99.90
66128;DHT22;52925;52.436;-1.952;2024-03-08T18:38:18;9.50;99.90
66128;DHT22;52925;52.436;-1.952;2024-03-08T18:39:39;9.50;99.90
66128;DHT22;52925;52.436;-1.952;2024-03-08T18:41:00;9.40;99.90
66128;DHT22;52925;52.436;-1.952;2024-03-08T18:42:20;9.40;99.90
66128;DHT22;52925;52.436;-1.952;2024-03-08T18:43:42;9.40;99.90
66128;DHT22;52925;52.436;-1.952;2024-03-08T18:45:02;9.40;99.90
66128;DHT22;52925;52.436;-1.952;2024-03-08T18:46:29;9.40;99.90
66128;DHT22;52925;52.436;-1.952;2024-03-08T18:47:51;9.40;99.90
66128;DHT22;52925;52.436;-1.952;2024-03-08T18:49:12;9.40;99.90
66128;DHT22;52925;52.436;-1.952;2024-03-08T18:51:53;9.40;99.90
66128;DHT22;52925;52.436;-1.952;2024-03-08T18:53:14;9.40;99.90
66128;DHT22;52925;52.436;-1.952;2024-03-08T18:54:35;9.40;99.90
66128;DHT22;52925;52.436;-1.952;2024-03-08T18:55:56;9.40;99.90
66128;DHT22;52925;52.436;-1.952;2024-03-08T18:57:17;9.40;99.90
66128;DHT22;52925;52.436;-1.952;2024-03-08T18:58:36;9.40;99.90
66128;DHT22;52925;52.436;-1.952;2024-03-08T18:59:59;9.50;99.90
66128;DHT22;52925;52.436;-1.952;2024-03-08T19:01:19;9.50;99.90
66128;DHT22;52925;52.436;-1.952;2024-03-08T19:02:44;9.40;99.90
66128;DHT22;52925;52.436;-1.952;2024-03-08T19:04:05;9.50;99.90
66128;DHT22;52925;52.436;-1.952;2024-03-08T19:05:27;9.40;99.90
66128;DHT22;52925;52.436;-1.952;2024-03-08T19:06:47;9.50;99.90
66128;DHT22;52925;52.436;-1.952;2024-03-08T19:08:11;9.40;99.90
66128;DHT22;52925;52.436;-1.952;2024-03-08T19:09:32;9.40;99.90
66128;DHT22;52925;52.436;-1.952;2024-03-08T19:10:53;9.40;99.90
66128;DHT22;52925;52.436;-1.952;2024-03-08T19:12:17;9.40;99.90
66128;DHT22;52925;52.436;-1.952;2024-03-08T19:13:38;9.40;99.90
66128;DHT22;52925;52.436;-1.952;2024-03-08T19:14:59;9.40;99.90
66128;DHT22;52925;52.436;-1.952;2024-03-08T19:16:28;9.40;99.90
66128;DHT22;52925;52.436;-1.952;2024-03-08T19:17:50;9.40;99.90
66128;DHT22;52925;52.436;-1.952;2024-03-08T19:19:10;9.40;99.90
66128;DHT22;52925;52.436;-1.952;2024-03-08T19:20:31;9.40;99.90
66128;DHT22;52925;52.436;-1.952;2024-03-08T19:21:53;9.40;99.90
66128;DHT22;52925;52.436;-1.952;2024-03-08T19:23:15;9.40;99.90
66128;DHT22;52925;52.436;-1.952;2024-03-08T19:24:34;9.40;99.90
66128;DHT22;52925;52.436;-1.952;2024-03-08T19:25:55;9.40;99.90
66128;DHT22;52925;52.436;-1.952;2024-03-08T19:27:15;9.40;99.90
66128;DHT22;52925;52.436;-1.952;2024-03-08T19:28:36;9.40;99.90
66128;DHT22;52925;52.436;-1.952;2024-03-08T19:30:00;9.40;99.90
66128;DHT22;52925;52.436;-1.952;2024-03-08T19:31:19;9.40;99.90
66128;DHT22;52925;52.436;-1.952;2024-03-08T19:32:41;9.40;99.90
66128;DHT22;52925;52.436;-1.952;2024-03-08T19:34:01;9.50;99.90
66128;DHT22;52925;52.436;-1.952;2024-03-08T19:35:23;9.40;99.90
66128;DHT22;52925;52.436;-1.952;2024-03-08T19:36:43;9.40;99.90
66128;DHT22;52925;52.436;-1.952;2024-03-08T19:38:04;9.40;99.90
66128;DHT22;52925;52.436;-1.952;2024-03-08T19:39:26;9.40;99.90
66128;DHT22;52925;52.436;-1.952;2024-03-08T19:40:47;9.40;99.90
66128;DHT22;52925;52.436;-1.952;2024-03-08T19:42:08;9.40;99.90
66128;DHT22;52925;52.436;-1.952;2024-03-08T19:43:29;9.40;99.90
66128;DHT22;52925;52.436;-1.952;2024-03-08T19:44:50;9.40;99.90
66128;DHT22;52925;52.436;-1.952;2024-03-08T19:46:12;9.40;99.90
66128;DHT22;52925;52.436;-1.952;2024-03-08T19:47:33;9.40;99.90
66128;DHT22;52925;52.436;-1.952;2024-03-08T19:48:53;9.40;99.90
66128;DHT22;52925;52.436;-1.952;2024-03-08T19:50:16;9.40;99.90
66128;DHT22;52925;52.436;-1.952;2024-03-08T19:51:36;9.40;99.90
66128;DHT22;52925;52.436;-1.952;2024-03-08T19:52:57;9.30;99.90
66128;DHT22;52925;52.436;-1.952;2024-03-08T19:54:23;9.30;99.90
66128;DHT22;52925;52.436;-1.952;2024-03-08T19:55:44;9.40;99.90
66128;DHT22;52925;52.436;-1.952;2024-03-08T19:57:08;9.40;99.90
66128;DHT22;52925;52.436;-1.952;2024-03-08T19:58:29;9.40;99.90
66128;DHT22;52925;52.436;-1.952;2024-03-08T19:59:49;9.40;99.90
66128;DHT22;52925;52.436;-1.952;2024-03-08T20:01:13;9.40;99.90
66128;DHT22;52925;52.436;-1.952;2024-03-08T20:02:34;9.40;99.90
66128;DHT22;52925;52.436;-1.952;2024-03-08T20:03:55;9.40;99.90
66128;DHT22;52925;52.436;-1.952;2024-03-08T20:05:16;9.40;99.90
66128;DHT22;52925;52.436;-1.952;2024-03-08T20:06:40;9.30;99.90
66128;DHT22;52925;52.436;-1.952;2024-03-08T20:08:05;9.30;99.90
66128;DHT22;52925;52.436;-1.952;2024-03-08T20:09:27;9.30;99.90
66128;DHT22;52925;52.436;-1.952;2024-03-08T20:10:49;9.30;99.90
66128;DHT22;52925;52.436;-1.952;2024-03-08T20:12:10;9.30;99.90
66128;DHT22;52925;52.436;-1.952;2024-03-08T20:13:31;9.30;99.90
66128;DHT22;52925;52.436;-1.952;2024-03-08T20:14:52;9.30;99.90
66128;DHT22;52925;52.436;-1.952;2024-03-08T20:16:15;9.30;99.90
66128;DHT22;52925;52.436;-1.952;2024-03-08T20:17:39;9.30;99.90
66128;DHT22;52925;52.436;-1.952;2024-03-08T20:18:58;9.30;99.90
66128;DHT22;52925;52.436;-1.952;2024-03-08T20:20:22;9.30;99.90
66128;DHT22;52925;52.436;-1.952;2024-03-08T20:21:42;9.30;99.90
66128;DHT22;52925;52.436;-1.952;2024-03-08T20:23:03;9.30;99.90
66128;DHT22;52925;52.436;-1.952;2024-03-08T20:24:24;9.30;99.90
66128;DHT22;52925;52.436;-1.952;2024-03-08T20:25:45;9.30;99.90
66128;DHT22;52925;52.436;-1.952;2024-03-08T20:27:08;9.30;99.90
66128;DHT22;52925;52.436;-1.952;2024-03-08T20:28:29;9.30;99.90
66128;DHT22;52925;52.436;-1.952;2024-03-08T20:29:52;9.30;99.90
66128;DHT22;52925;52.436;-1.952;2024-03-08T20:31:15;9.30;99.90
66128;DHT22;52925;52.436;-1.952;2024-03-08T20:32:36;9.30;99.90
66128;DHT22;52925;52.436;-1.952;2024-03-08T20:33:56;9.30;99.90
66128;DHT22;52925;52.436;-1.952;2024-03-08T20:35:16;9.30;99.90
66128;DHT22;52925;52.436;-1.952;2024-03-08T20:36:40;9.30;99.90
66128;DHT22;52925;52.436;-1.952;2024-03-08T20:38:02;9.30;99.90
66128;DHT22;52925;52.436;-1.952;2024-03-08T20:39:25;9.30;99.90
66128;DHT22;52925;52.436;-1.952;2024-03-08T20:40:48;9.30;99.90
66128;DHT22;52925;52.436;-1.952;2024-03-08T20:42:09;9.30;99.90
66128;DHT22;52925;52.436;-1.952;2024-03-08T20:43:30;9.30;99.90
66128;DHT22;52925;52.436;-1.952;2024-03-08T20:44:50;9.30;99.90
66128;DHT22;52925;52.436;-1.952;2024-03-08T20:46:11;9.30;99.90
66128;DHT22;52925;52.436;-1.952;2024-03-08T20:47:36;9.30;99.90
66128;DHT22;52925;52.436;-1.952;2024-03-08T20:49:01;9.30;99.90
66128;DHT22;52925;52.436;-1.952;2024-03-08T20:50:22;9.30;99.90
66128;DHT22;52925;52.436;-1.952;2024-03-08T20:51:43;9.30;99.90
66128;DHT22;52925;52.436;-1.952;2024-03-08T20:53:03;9.30;99.90
66128;DHT22;52925;52.436;-1.952;2024-03-08T20:54:26;9.30;99.90
66128;DHT22;52925;52.436;-1.952;2024-03-08T20:55:46;9.30;99.90
66128;DHT22;52925;52.436;-1.952;2024-03-08T20:57:09;9.30;99.90
66128;DHT22;52925;52.436;-1.952;2024-03-08T20:58:29;9.30;99.90
66128;DHT22;52925;52.436;-1.952;2024-03-08T20:59:50;9.40;99.90
66128;DHT22;52925;52.436;-1.952;2024-03-08T21:01:10;9.30;99.90
66128;DHT22;52925;52.436;-1.952;2024-03-08T21:02:31;9.30;99.90
66128;DHT22;52925;52.436;-1.952;2024-03-08T21:03:52;9.30;99.90
66128;DHT22;52925;52.436;-1.952;2024-03-08T21:05:13;9.30;99.90
66128;DHT22;52925;52.436;-1.952;2024-03-08T21:06:32;9.30;99.90
66128;DHT22;52925;52.436;-1.952;2024-03-08T21:07:54;9.30;99.90
66128;DHT22;52925;52.436;-1.952;2024-03-08T21:09:14;9.30;99.90
66128;DHT22;52925;52.436;-1.952;2024-03-08T21:10:34;9.30;99.90
66128;DHT22;52925;52.436;-1.952;2024-03-08T21:11:58;9.20;99.90
66128;DHT22;52925;52.436;-1.952;2024-03-08T21:13:18;9.30;99.90
66128;DHT22;52925;52.436;-1.952;2024-03-08T21:14:41;9.30;99.90
66128;DHT22;52925;52.436;-1.952;2024-03-08T21:16:00;9.30;99.90
66128;DHT22;52925;52.436;-1.952;2024-03-08T21:17:21;9.30;99.90
66128;DHT22;52925;52.436;-1.952;2024-03-08T21:18:41;9.30;99.90
66128;DHT22;52925;52.436;-1.952;2024-03-08T21:20:04;9.30;99.90
66128;DHT22;52925;52.436;-1.952;2024-03-08T21:21:27;9.30;99.90
66128;DHT22;52925;52.436;-1.952;2024-03-08T21:22:48;9.30;99.90
66128;DHT22;52925;52.436;-1.952;2024-03-08T21:24:08;9.30;99.90
66128;DHT22;52925;52.436;-1.952;2024-03-08T21:25:30;9.30;99.90
66128;DHT22;52925;52.436;-1.952;2024-03-08T21:26:50;9.30;99.90
66128;DHT22;52925;52.436;-1.952;2024-03-08T21:28:12;9.30;99.90
66128;DHT22;52925;52.436;-1.952;2024-03-08T21:29:38;9.30;99.90
66128;DHT22;52925;52.436;-1.952;2024-03-08T21:30:59;9.30;99.90
66128;DHT22;52925;52.436;-1.952;2024-03-08T21:32:20;9.20;99.90
66128;DHT22;52925;52.436;-1.952;2024-03-08T21:33:41;9.30;99.90
66128;DHT22;52925;52.436;-1.952;2024-03-08T21:35:04;9.30;99.90
66128;DHT22;52925;52.436;-1.952;2024-03-08T21:36:26;9.30;99.90
66128;DHT22;52925;52.436;-1.952;2024-03-08T21:37:46;9.30;99.90
66128;DHT22;52925;52.436;-1.952;2024-03-08T21:39:07;9.30;99.90
66128;DHT22;52925;52.436;-1.952;2024-03-08T21:40:30;9.30;99.90
66128;DHT22;52925;52.436;-1.952;2024-03-08T21:41:55;9.30;99.90
66128;DHT22;52925;52.436;-1.952;2024-03-08T21:43:15;9.20;99.90
66128;DHT22;52925;52.436;-1.952;2024-03-08T21:44:35;9.30;99.90
66128;DHT22;52925;52.436;-1.952;2024-03-08T21:45:56;9.30;99.90
66128;DHT22;52925;52.436;-1.952;2024-03-08T21:47:16;9.30;99.90
66128;DHT22;52925;52.436;-1.952;2024-03-08T21:48:38;9.30;99.90
66128;DHT22;52925;52.436;-1.952;2024-03-08T21:49:59;9.20;99.90
66128;DHT22;52925;52.436;-1.952;2024-03-08T21:51:20;9.20;99.90
66128;DHT22;52925;52.436;-1.952;2024-03-08T21:52:42;9.20;99.90
66128;DHT22;52925;52.436;-1.952;2024-03-08T21:54:03;9.20;99.90
66128;DHT22;52925;52.436;-1.952;2024-03-08T21:55:23;9.20;99.90
66128;DHT22;52925;52.436;-1.952;2024-03-08T21:56:44;9.10;99.90
66128;DHT22;52925;52.436;-1.952;2024-03-08T21:58:05;9.10;99.90
66128;DHT22;52925;52.436;-1.952;2024-03-08T21:59:26;9.20;99.90
66128;DHT22;52925;52.436;-1.952;2024-03-08T22:00:49;9.10;99.90
66128;DHT22;52925;52.436;-1.952;2024-03-08T22:02:09;9.10;99.90
66128;DHT22;52925;52.436;-1.952;2024-03-08T22:03:29;9.20;99.90
66128;DHT22;52925;52.436;-1.952;2024-03-08T22:04:52;9.20;99.90
66128;DHT22;52925;52.436;-1.952;2024-03-08T22:06:12;9.20;99.90
66128;DHT22;52925;52.436;-1.952;2024-03-08T22:07:34;9.30;99.90
66128;DHT22;52925;52.436;-1.952;2024-03-08T22:08:55;9.30;99.90
66128;DHT22;52925;52.436;-1.952;2024-03-08T22:10:15;9.30;99.90
66128;DHT22;52925;52.436;-1.952;2024-03-08T22:11:39;9.20;99.90
66128;DHT22;52925;52.436;-1.952;2024-03-08T22:12:59;9.20;99.90
66128;DHT22;52925;52.436;-1.952;2024-03-08T22:14:20;9.20;99.90
66128;DHT22;52925;52.436;-1.952;2024-03-08T22:15:42;9.10;99.90
66128;DHT22;52925;52.436;-1.952;2024-03-08T22:17:08;9.20;99.90
66128;DHT22;52925;52.436;-1.952;2024-03-08T22:18:30;9.20;99.90
66128;DHT22;52925;52.436;-1.952;2024-03-08T22:19:51;9.20;99.90
66128;DHT22;52925;52.436;-1.952;2024-03-08T22:21:12;9.20;99.90
66128;DHT22;52925;52.436;-1.952;2024-03-08T22:22:34;9.20;99.90
66128;DHT22;52925;52.436;-1.952;2024-03-08T22:23:55;9.20;99.90
66128;DHT22;52925;52.436;-1.952;2024-03-08T22:25:16;9.20;99.90
66128;DHT22;52925;52.436;-1.952;2024-03-08T22:26:37;9.20;99.90
66128;DHT22;52925;52.436;-1.952;2024-03-08T22:27:57;9.20;99.90
66128;DHT22;52925;52.436;-1.952;2024-03-08T22:29:18;9.20;99.90
66128;DHT22;52925;52.436;-1.952;2024-03-08T22:30:39;9.20;99.90
66128;DHT22;52925;52.436;-1.952;2024-03-08T22:32:00;9.20;99.90
66128;DHT22;52925;52.436;-1.952;2024-03-08T22:33:20;9.20;99.90
66128;DHT22;52925;52.436;-1.952;2024-03-08T22:34:42;9.20;99.90
66128;DHT22;52925;52.436;-1.952;2024-03-08T22:36:02;9.20;99.90
66128;DHT22;52925;52.436;-1.952;2024-03-08T22:37:26;9.20;99.90
66128;DHT22;52925;52.436;-1.952;2024-03-08T22:38:47;9.20;99.90
66128;DHT22;52925;52.436;-1.952;2024-03-08T22:40:09;9.20;99.90
66128;DHT22;52925;52.436;-1.952;2024-03-08T22:41:30;9.10;99.90
66128;DHT22;52925;52.436;-1.952;2024-03-08T22:42:56;9.20;99.90
66128;DHT22;52925;52.436;-1.952;2024-03-08T22:44:15;9.10;99.90
66128;DHT22;52925;52.436;-1.952;2024-03-08T22:45:36;9.20;99.90
66128;DHT22;52925;52.436;-1.952;2024-03-08T22:46:58;9.10;99.90
66128;DHT22;52925;52.436;-1.952;2024-03-08T22:48:19;9.10;99.90
66128;DHT22;52925;52.436;-1.952;2024-03-08T22:49:39;9.10;99.90
66128;DHT22;52925;52.436;-1.952;2024-03-08T22:51:00;9.10;99.90
66128;DHT22;52925;52.436;-1.952;2024-03-08T22:52:22;9.20;99.90
66128;DHT22;52925;52.436;-1.952;2024-03-08T22:53:43;9.10;99.90
66128;DHT22;52925;52.436;-1.952;2024-03-08T22:55:05;9.10;99.90
66128;DHT22;52925;52.436;-1.952;2024-03-08T22:56:28;9.10;99.90
66128;DHT22;52925;52.436;-1.952;2024-03-08T22:57:48;9.20;99.90
66128;DHT22;52925;52.436;-1.952;2024-03-08T22:59:09;9.10;99.90
66128;DHT22;52925;52.436;-1.952;2024-03-08T23:00:29;9.10;99.90
66128;DHT22;52925;52.436;-1.952;2024-03-08T23:02:14;9.10;99.90
66128;DHT22;52925;52.436;-1.952;2024-03-08T23:03:37;9.10;99.90
66128;DHT22;52925;52.436;-1.952;2024-03-08T23:04:58;9.10;99.90
66128;DHT22;52925;52.436;-1.952;2024-03-08T23:06:18;9.20;99.90
66128;DHT22;52925;52.436;-1.952;2024-03-08T23:07:40;9.10;99.90
66128;DHT22;52925;52.436;-1.952;2024-03-08T23:09:00;9.10;99.90
66128;DHT22;52925;52.436;-1.952;2024-03-08T23:10:22;9.00;99.90
66128;DHT22;52925;52.436;-1.952;2024-03-08T23:11:44;9.10;99.90
66128;DHT22;52925;52.436;-1.952;2024-03-08T23:13:05;9.10;99.90
66128;DHT22;52925;52.436;-1.952;2024-03-08T23:14:28;9.10;99.90
